createdAt,value
2018-05-12T00:00:22.668Z,932.48
2018-05-12T00:01:22.663Z,932.54
2018-05-12T00:02:22.658Z,932.50
2018-05-12T00:03:22.651Z,932.55
2018-05-12T00:04:22.645Z,932.56
2018-05-12T00:05:22.644Z,932.56
2018-05-12T00:06:22.633Z,932.57
2018-05-12T00:07:22.629Z,932.57
2018-05-12T00:08:22.622Z,932.54
2018-05-12T00:09:22.617Z,932.57
2018-05-12T00:10:22.609Z,932.57
2018-05-12T00:11:22.708Z,932.55
2018-05-12T00:12:22.595Z,932.51
2018-05-12T00:13:22.590Z,932.52
2018-05-12T00:14:22.583Z,932.51
2018-05-12T00:15:22.578Z,932.52
2018-05-12T00:16:22.572Z,932.58
2018-05-12T00:17:22.668Z,932.59
2018-05-12T00:18:22.559Z,932.57
2018-05-12T00:19:22.554Z,932.58
2018-05-12T00:20:22.548Z,932.59
2018-05-12T00:21:22.542Z,932.56
2018-05-12T00:22:22.536Z,932.62
2018-05-12T00:23:22.529Z,932.62
2018-05-12T00:24:22.524Z,932.66
2018-05-12T00:25:22.518Z,932.67
2018-05-12T00:26:22.511Z,932.66
2018-05-12T00:27:22.506Z,932.69
2018-05-12T00:28:22.501Z,932.66
2018-05-12T00:29:22.595Z,932.66
2018-05-12T00:30:22.491Z,932.65
2018-05-12T00:31:22.483Z,932.59
2018-05-12T00:32:22.476Z,932.63
2018-05-12T00:33:22.473Z,932.60
2018-05-12T00:34:22.466Z,932.61
2018-05-12T00:35:22.558Z,932.59
2018-05-12T00:36:22.453Z,932.61
2018-05-12T00:37:22.448Z,932.60
2018-05-12T00:38:22.441Z,932.65
2018-05-12T00:39:22.435Z,932.66
2018-05-12T00:40:22.432Z,932.65
2018-05-12T00:41:22.424Z,932.69
2018-05-12T00:42:22.418Z,932.71
2018-05-12T00:43:22.412Z,932.73
2018-05-12T00:44:22.411Z,932.73
2018-05-12T00:45:22.408Z,932.75
2018-05-12T00:46:22.394Z,932.73
2018-05-12T00:47:22.488Z,932.79
2018-05-12T00:48:22.383Z,932.77
2018-05-12T00:49:22.377Z,932.80
2018-05-12T00:50:22.371Z,932.81
2018-05-12T00:51:22.366Z,932.80
2018-05-12T00:52:22.354Z,932.84
2018-05-12T00:53:22.348Z,932.85
2018-05-12T00:54:22.343Z,932.87
2018-05-12T00:55:22.337Z,932.85
2018-05-12T00:56:22.330Z,932.84
2018-05-12T00:57:22.326Z,932.83
2018-05-12T00:58:22.317Z,932.88
2018-05-12T00:59:22.311Z,932.89
2018-05-12T01:00:22.340Z,932.87
2018-05-12T01:01:22.301Z,932.89
2018-05-12T01:02:22.293Z,932.93
2018-05-12T01:03:22.289Z,932.92
2018-05-12T01:04:22.287Z,932.88
2018-05-12T01:05:22.281Z,932.86
2018-05-12T01:06:22.272Z,932.86
2018-05-12T01:07:22.265Z,932.86
2018-05-12T01:08:22.257Z,932.87
2018-05-12T01:09:22.255Z,932.87
2018-05-12T01:10:22.246Z,932.87
2018-05-12T01:11:22.241Z,932.86
2018-05-12T01:12:22.235Z,932.91
2018-05-12T01:13:22.233Z,932.90
2018-05-12T01:14:22.227Z,932.85
2018-05-12T01:15:22.216Z,932.83
2018-05-12T01:16:22.210Z,932.82
2018-05-12T01:17:22.205Z,932.84
2018-05-12T01:18:22.197Z,932.82
2018-05-12T01:19:22.194Z,932.81
2018-05-12T01:20:22.188Z,932.81
2018-05-12T01:21:22.180Z,932.81
2018-05-12T01:22:22.173Z,932.83
2018-05-12T01:23:22.167Z,932.82
2018-05-12T01:24:22.160Z,932.80
2018-05-12T01:25:22.162Z,932.77
2018-05-12T01:26:22.149Z,932.75
2018-05-12T01:27:22.145Z,932.75
2018-05-12T01:28:22.134Z,932.77
2018-05-12T01:29:22.229Z,932.77
2018-05-12T01:30:22.121Z,932.75
2018-05-12T01:31:22.116Z,932.75
2018-05-12T01:32:22.110Z,932.72
2018-05-12T01:33:22.104Z,932.73
2018-05-12T01:34:22.097Z,932.76
2018-05-12T01:35:22.190Z,932.80
2018-05-12T01:36:22.085Z,932.80
2018-05-12T01:37:22.077Z,932.82
2018-05-12T01:38:22.071Z,932.82
2018-05-12T01:39:22.064Z,932.85
2018-05-12T01:40:22.056Z,932.86
2018-05-12T01:41:22.051Z,932.87
2018-05-12T01:42:22.043Z,932.88
2018-05-12T01:43:22.039Z,932.86
2018-05-12T01:44:22.033Z,932.88
2018-05-12T01:45:22.030Z,932.88
2018-05-12T01:46:22.018Z,932.91
2018-05-12T01:47:22.111Z,932.94
2018-05-12T01:48:22.004Z,932.94
2018-05-12T01:49:21.998Z,932.95
2018-05-12T01:50:21.989Z,932.91
2018-05-12T01:51:21.986Z,932.94
2018-05-12T01:52:21.978Z,932.93
2018-05-12T01:53:22.037Z,932.92
2018-05-12T01:54:21.965Z,932.95
2018-05-12T01:55:21.957Z,932.93
2018-05-12T01:56:21.951Z,932.90
2018-05-12T01:57:21.945Z,932.88
2018-05-12T01:58:21.936Z,932.85
2018-05-12T01:59:21.931Z,932.88
2018-05-12T02:00:21.926Z,932.86
2018-05-12T02:01:21.917Z,932.85
2018-05-12T02:02:21.914Z,932.86
2018-05-12T02:03:21.903Z,932.89
2018-05-12T02:04:21.896Z,932.88
2018-05-12T02:05:21.990Z,932.87
2018-05-12T02:06:21.883Z,932.90
2018-05-12T02:07:21.877Z,932.90
2018-05-12T02:08:21.872Z,932.89
2018-05-12T02:09:21.864Z,932.90
2018-05-12T02:10:21.856Z,932.92
2018-05-12T02:11:21.949Z,932.90
2018-05-12T02:12:21.843Z,932.90
2018-05-12T02:13:21.836Z,932.91
2018-05-12T02:14:21.829Z,932.90
2018-05-12T02:15:21.821Z,932.93
2018-05-12T02:16:21.816Z,932.92
2018-05-12T02:17:21.808Z,932.91
2018-05-12T02:18:21.801Z,932.90
2018-05-12T02:19:21.795Z,932.93
2018-05-12T02:20:21.789Z,932.93
2018-05-12T02:21:21.782Z,932.92
2018-05-12T02:22:21.774Z,932.91
2018-05-12T02:23:21.768Z,932.90
2018-05-12T02:24:21.760Z,932.92
2018-05-12T02:25:21.757Z,932.88
2018-05-12T02:26:21.746Z,932.86
2018-05-12T02:27:21.740Z,932.89
2018-05-12T02:28:21.734Z,932.90
2018-05-12T02:29:21.728Z,932.89
2018-05-12T02:30:21.756Z,932.90
2018-05-12T02:31:21.713Z,932.91
2018-05-12T02:32:21.707Z,932.93
2018-05-12T02:33:21.700Z,932.93
2018-05-12T02:34:21.696Z,932.88
2018-05-12T02:35:21.908Z,932.90
2018-05-12T02:36:21.682Z,932.87
2018-05-12T02:37:21.672Z,932.89
2018-05-12T02:38:21.664Z,932.87
2018-05-12T02:39:21.657Z,932.86
2018-05-12T02:40:21.652Z,932.95
2018-05-12T02:41:21.644Z,932.97
2018-05-12T02:42:21.636Z,932.91
2018-05-12T02:43:21.629Z,932.91
2018-05-12T02:44:21.622Z,932.90
2018-05-12T02:45:21.624Z,932.92
2018-05-12T02:46:21.609Z,932.94
2018-05-12T02:47:21.701Z,932.94
2018-05-12T02:48:21.595Z,932.96
2018-05-12T02:49:21.602Z,932.96
2018-05-12T02:50:21.593Z,932.96
2018-05-12T02:51:21.579Z,932.95
2018-05-12T02:52:21.575Z,932.94
2018-05-12T02:53:21.665Z,932.91
2018-05-12T02:54:21.552Z,932.87
2018-05-12T02:55:21.543Z,932.89
2018-05-12T02:56:21.540Z,932.85
2018-05-12T02:57:21.530Z,932.86
2018-05-12T02:58:21.525Z,932.81
2018-05-12T02:59:21.519Z,932.82
2018-05-12T03:00:21.510Z,932.80
2018-05-12T03:01:21.503Z,932.80
2018-05-12T03:02:21.494Z,932.81
2018-05-12T03:03:21.491Z,932.86
2018-05-12T03:04:21.496Z,932.82
2018-05-12T03:05:21.596Z,932.80
2018-05-12T03:06:21.482Z,932.86
2018-05-12T03:07:21.473Z,932.82
2018-05-12T03:08:21.471Z,932.84
2018-05-12T03:09:21.465Z,932.81
2018-05-12T03:10:21.454Z,932.81
2018-05-12T03:11:21.431Z,932.79
2018-05-12T03:12:21.425Z,932.79
2018-05-12T03:13:21.421Z,932.81
2018-05-12T03:14:21.410Z,932.78
2018-05-12T03:15:21.402Z,932.76
2018-05-12T03:16:21.395Z,932.75
2018-05-12T03:17:21.389Z,932.69
2018-05-12T03:18:21.382Z,932.72
2018-05-12T03:19:21.374Z,932.70
2018-05-12T03:20:21.367Z,932.70
2018-05-12T03:21:21.360Z,932.65
2018-05-12T03:22:21.352Z,932.68
2018-05-12T03:23:21.346Z,932.65
2018-05-12T03:24:21.347Z,932.63
2018-05-12T03:25:21.331Z,932.67
2018-05-12T03:26:21.333Z,932.61
2018-05-12T03:27:21.315Z,932.64
2018-05-12T03:28:21.309Z,932.60
2018-05-12T03:29:21.302Z,932.63
2018-05-12T03:30:21.296Z,932.59
2018-05-12T03:31:21.287Z,932.61
2018-05-12T03:32:21.285Z,932.57
2018-05-12T03:33:21.273Z,932.55
2018-05-12T03:34:21.283Z,932.56
2018-05-12T03:35:21.358Z,932.56
2018-05-12T03:36:21.288Z,932.61
2018-05-12T03:37:21.242Z,932.58
2018-05-12T03:38:21.238Z,932.57
2018-05-12T03:39:21.229Z,932.52
2018-05-12T03:40:21.223Z,932.52
2018-05-12T03:41:21.214Z,932.49
2018-05-12T03:42:21.208Z,932.50
2018-05-12T03:43:21.199Z,932.49
2018-05-12T03:44:21.204Z,932.50
2018-05-12T03:45:21.184Z,932.46
2018-05-12T03:46:21.176Z,932.46
2018-05-12T03:47:21.173Z,932.49
2018-05-12T03:48:21.161Z,932.46
2018-05-12T03:49:21.154Z,932.44
2018-05-12T03:50:21.147Z,932.47
2018-05-12T03:51:21.144Z,932.42
2018-05-12T03:52:21.132Z,932.41
2018-05-12T03:53:21.224Z,932.38
2018-05-12T03:54:21.120Z,932.37
2018-05-12T03:55:21.109Z,932.38
2018-05-12T03:56:21.103Z,932.40
2018-05-12T03:57:21.094Z,932.42
2018-05-12T03:58:21.089Z,932.39
2018-05-12T03:59:21.079Z,932.37
2018-05-12T04:00:21.078Z,932.41
2018-05-12T04:01:21.066Z,932.42
2018-05-12T04:02:21.075Z,932.40
2018-05-12T04:03:21.050Z,932.38
2018-05-12T04:04:21.045Z,932.37
2018-05-12T04:05:21.136Z,932.35
2018-05-12T04:06:21.031Z,932.35
2018-05-12T04:07:21.032Z,932.34
2018-05-12T04:08:21.012Z,932.32
2018-05-12T04:09:21.006Z,932.29
2018-05-12T04:10:21.006Z,932.29
2018-05-12T04:11:20.994Z,932.30
2018-05-12T04:12:20.984Z,932.34
2018-05-12T04:13:20.976Z,932.29
2018-05-12T04:14:20.968Z,932.30
2018-05-12T04:15:20.963Z,932.27
2018-05-12T04:16:20.958Z,932.27
2018-05-12T04:17:21.048Z,932.30
2018-05-12T04:18:20.939Z,932.28
2018-05-12T04:19:20.930Z,932.28
2018-05-12T04:20:20.924Z,932.28
2018-05-12T04:21:20.917Z,932.24
2018-05-12T04:22:20.909Z,932.25
2018-05-12T04:23:21.002Z,932.25
2018-05-12T04:24:20.893Z,932.22
2018-05-12T04:25:20.887Z,932.24
2018-05-12T04:26:20.878Z,932.22
2018-05-12T04:27:20.872Z,932.22
2018-05-12T04:28:20.863Z,932.29
2018-05-12T04:29:20.958Z,932.30
2018-05-12T04:30:20.850Z,932.26
2018-05-12T04:31:20.842Z,932.29
2018-05-12T04:32:20.836Z,932.26
2018-05-12T04:33:20.826Z,932.31
2018-05-12T04:34:20.819Z,932.30
2018-05-12T04:35:20.810Z,932.30
2018-05-12T04:36:20.805Z,932.34
2018-05-12T04:37:20.798Z,932.29
2018-05-12T04:38:20.793Z,932.35
2018-05-12T04:39:20.782Z,932.30
2018-05-12T04:40:20.774Z,932.29
2018-05-12T04:41:20.766Z,932.30
2018-05-12T04:42:20.759Z,932.27
2018-05-12T04:43:20.811Z,932.29
2018-05-12T04:44:20.746Z,932.27
2018-05-12T04:45:20.737Z,932.30
2018-05-12T04:46:20.747Z,932.27
2018-05-12T04:47:20.721Z,932.27
2018-05-12T04:48:20.716Z,932.25
2018-05-12T04:49:20.706Z,932.27
2018-05-12T04:50:20.702Z,932.30
2018-05-12T04:51:20.692Z,932.29
2018-05-12T04:52:20.688Z,932.25
2018-05-12T04:53:20.679Z,932.28
2018-05-12T04:54:20.695Z,932.25
2018-05-12T04:55:20.662Z,932.28
2018-05-12T04:56:20.664Z,932.31
2018-05-12T04:57:20.648Z,932.29
2018-05-12T04:58:20.641Z,932.31
2018-05-12T04:59:20.632Z,932.30
2018-05-12T05:00:20.624Z,932.29
2018-05-12T05:01:20.619Z,932.32
2018-05-12T05:02:20.610Z,932.29
2018-05-12T05:03:20.604Z,932.30
2018-05-12T05:04:20.597Z,932.30
2018-05-12T05:05:20.589Z,932.29
2018-05-12T05:06:20.581Z,932.31
2018-05-12T05:07:20.573Z,932.32
2018-05-12T05:08:20.631Z,932.34
2018-05-12T05:09:20.560Z,932.29
2018-05-12T05:10:20.552Z,932.26
2018-05-12T05:11:20.644Z,932.25
2018-05-12T05:12:20.539Z,932.26
2018-05-12T05:13:20.531Z,932.21
2018-05-12T05:14:20.521Z,932.23
2018-05-12T05:15:20.556Z,932.23
2018-05-12T05:16:20.507Z,932.17
2018-05-12T05:17:20.600Z,932.19
2018-05-12T05:18:20.494Z,932.17
2018-05-12T05:19:20.484Z,932.14
2018-05-12T05:20:20.477Z,932.14
2018-05-12T05:21:20.475Z,932.09
2018-05-12T05:22:20.462Z,932.12
2018-05-12T05:23:20.455Z,932.12
2018-05-12T05:24:20.452Z,932.10
2018-05-12T05:25:20.441Z,932.11
2018-05-12T05:26:20.432Z,932.07
2018-05-12T05:27:20.425Z,932.04
2018-05-12T05:28:20.418Z,932.07
2018-05-12T05:29:20.409Z,932.03
2018-05-12T05:30:20.402Z,932.07
2018-05-12T05:31:20.393Z,932.05
2018-05-12T05:32:20.388Z,932.04
2018-05-12T05:33:20.380Z,932.10
2018-05-12T05:34:20.371Z,932.07
2018-05-12T05:35:20.521Z,932.11
2018-05-12T05:36:20.355Z,932.10
2018-05-12T05:37:20.351Z,932.06
2018-05-12T05:38:20.341Z,932.05
2018-05-12T05:39:20.336Z,932.04
2018-05-12T05:40:20.326Z,932.01
2018-05-12T05:41:20.318Z,932.03
2018-05-12T05:42:20.310Z,932.00
2018-05-12T05:43:20.303Z,931.93
2018-05-12T05:44:20.295Z,931.92
2018-05-12T05:45:20.290Z,931.92
2018-05-12T05:46:20.280Z,931.92
2018-05-12T05:47:20.373Z,931.93
2018-05-12T05:48:20.269Z,931.94
2018-05-12T05:49:20.258Z,931.92
2018-05-12T05:50:20.293Z,931.90
2018-05-12T05:51:20.242Z,931.90
2018-05-12T05:52:20.238Z,931.93
2018-05-12T05:53:20.227Z,931.92
2018-05-12T05:54:20.220Z,931.93
2018-05-12T05:55:20.213Z,931.92
2018-05-12T05:56:20.205Z,931.90
2018-05-12T05:57:20.197Z,931.91
2018-05-12T05:58:20.188Z,931.93
2018-05-12T05:59:20.282Z,931.93
2018-05-12T06:00:20.173Z,931.91
2018-05-12T06:01:20.169Z,931.86
2018-05-12T06:02:20.160Z,931.84
2018-05-12T06:03:20.152Z,931.80
2018-05-12T06:04:20.146Z,931.73
2018-05-12T06:05:20.142Z,931.73
2018-05-12T06:06:20.130Z,931.70
2018-05-12T06:07:20.123Z,931.74
2018-05-12T06:08:20.115Z,931.68
2018-05-12T06:09:20.108Z,931.73
2018-05-12T06:10:20.099Z,931.69
2018-05-12T06:11:20.191Z,931.74
2018-05-12T06:12:20.083Z,931.71
2018-05-12T06:13:20.076Z,931.74
2018-05-12T06:14:20.068Z,931.76
2018-05-12T06:15:20.060Z,931.81
2018-05-12T06:16:20.053Z,931.77
2018-05-12T06:17:20.049Z,931.77
2018-05-12T06:18:20.038Z,931.81
2018-05-12T06:19:20.029Z,931.79
2018-05-12T06:20:20.025Z,931.80
2018-05-12T06:21:20.016Z,931.81
2018-05-12T06:22:20.008Z,931.82
2018-05-12T06:23:20.150Z,931.78
2018-05-12T06:24:19.991Z,931.83
2018-05-12T06:25:19.984Z,931.84
2018-05-12T06:26:19.979Z,931.82
2018-05-12T06:27:19.969Z,931.84
2018-05-12T06:28:19.961Z,931.83
2018-05-12T06:29:20.053Z,931.82
2018-05-12T06:30:19.945Z,931.79
2018-05-12T06:31:19.937Z,931.77
2018-05-12T06:32:19.931Z,931.76
2018-05-12T06:33:19.923Z,931.72
2018-05-12T06:34:19.913Z,931.72
2018-05-12T06:35:19.908Z,931.73
2018-05-12T06:36:19.898Z,931.72
2018-05-12T06:37:19.892Z,931.74
2018-05-12T06:38:19.882Z,931.75
2018-05-12T06:39:19.876Z,931.72
2018-05-12T06:40:19.869Z,931.75
2018-05-12T06:41:19.862Z,931.73
2018-05-12T06:42:19.852Z,931.72
2018-05-12T06:43:19.846Z,931.72
2018-05-12T06:44:19.837Z,931.72
2018-05-12T06:45:19.831Z,931.72
2018-05-12T06:46:19.824Z,931.71
2018-05-12T06:47:19.966Z,931.73
2018-05-12T06:48:19.809Z,931.73
2018-05-12T06:49:19.800Z,931.75
2018-05-12T06:50:19.791Z,931.77
2018-05-12T06:51:19.782Z,931.70
2018-05-12T06:52:19.777Z,931.72
2018-05-12T06:53:19.919Z,931.71
2018-05-12T06:54:19.767Z,931.67
2018-05-12T06:55:19.753Z,931.70
2018-05-12T06:56:19.745Z,931.69
2018-05-12T06:57:19.738Z,931.67
2018-05-12T06:58:19.729Z,931.67
2018-05-12T06:59:19.823Z,931.73
2018-05-12T07:00:19.715Z,931.69
2018-05-12T07:01:19.758Z,931.72
2018-05-12T07:02:19.698Z,931.71
2018-05-12T07:03:19.690Z,931.73
2018-05-12T07:04:19.683Z,931.73
2018-05-12T07:05:19.828Z,931.74
2018-05-12T07:06:19.667Z,931.71
2018-05-12T07:07:19.660Z,931.74
2018-05-12T07:08:19.652Z,931.74
2018-05-12T07:09:19.645Z,931.71
2018-05-12T07:10:19.636Z,931.68
2018-05-12T07:11:19.628Z,931.65
2018-05-12T07:12:19.691Z,931.67
2018-05-12T07:13:19.615Z,931.66
2018-05-12T07:14:19.604Z,931.65
2018-05-12T07:15:19.597Z,931.68
2018-05-12T07:16:19.591Z,931.69
2018-05-12T07:17:19.736Z,931.65
2018-05-12T07:18:19.572Z,931.66
2018-05-12T07:19:19.605Z,931.65
2018-05-12T07:20:19.558Z,931.68
2018-05-12T07:21:19.551Z,931.69
2018-05-12T07:22:19.541Z,931.69
2018-05-12T07:23:19.635Z,931.68
2018-05-12T07:24:19.527Z,931.64
2018-05-12T07:25:19.523Z,931.65
2018-05-12T07:26:19.510Z,931.62
2018-05-12T07:27:19.503Z,931.61
2018-05-12T07:28:19.498Z,931.55
2018-05-12T07:29:19.488Z,931.62
2018-05-12T07:30:19.480Z,931.59
2018-05-12T07:31:19.475Z,931.61
2018-05-12T07:32:19.465Z,931.60
2018-05-12T07:33:19.459Z,931.60
2018-05-12T07:34:19.449Z,931.63
2018-05-12T07:35:19.440Z,931.67
2018-05-12T07:36:19.434Z,931.68
2018-05-12T07:37:19.427Z,931.68
2018-05-12T07:38:19.418Z,931.71
2018-05-12T07:39:19.409Z,931.67
2018-05-12T07:40:19.402Z,931.71
2018-05-12T07:41:19.546Z,931.69
2018-05-12T07:42:19.386Z,931.65
2018-05-12T07:43:19.379Z,931.68
2018-05-12T07:44:19.375Z,931.67
2018-05-12T07:45:19.367Z,931.66
2018-05-12T07:46:19.356Z,931.69
2018-05-12T07:47:19.349Z,931.73
2018-05-12T07:48:19.341Z,931.72
2018-05-12T07:49:19.333Z,931.74
2018-05-12T07:50:19.324Z,931.73
2018-05-12T07:51:19.317Z,931.73
2018-05-12T07:52:19.315Z,931.75
2018-05-12T07:53:19.303Z,931.75
2018-05-12T07:54:19.292Z,931.85
2018-05-12T07:55:19.289Z,931.83
2018-05-12T07:56:19.279Z,931.86
2018-05-12T07:57:19.272Z,931.87
2018-05-12T07:58:19.263Z,931.87
2018-05-12T07:59:19.407Z,931.89
2018-05-12T08:00:19.247Z,931.90
2018-05-12T08:01:19.275Z,931.93
2018-05-12T08:02:19.232Z,931.91
2018-05-12T08:03:19.224Z,931.91
2018-05-12T08:04:19.216Z,931.90
2018-05-12T08:05:19.209Z,931.90
2018-05-12T08:06:19.204Z,931.92
2018-05-12T08:07:19.192Z,931.89
2018-05-12T08:08:19.186Z,931.90
2018-05-12T08:09:19.178Z,931.91
2018-05-12T08:10:19.170Z,931.92
2018-05-12T08:11:19.262Z,931.93
2018-05-12T08:12:19.153Z,931.95
2018-05-12T08:13:19.147Z,931.94
2018-05-12T08:14:19.137Z,931.96
2018-05-12T08:15:19.135Z,931.96
2018-05-12T08:16:19.123Z,932.03
2018-05-12T08:17:19.115Z,932.04
2018-05-12T08:18:19.106Z,932.01
2018-05-12T08:19:19.099Z,932.04
2018-05-12T08:20:19.091Z,932.02
2018-05-12T08:21:19.084Z,932.05
2018-05-12T08:22:19.075Z,932.06
2018-05-12T08:23:19.069Z,932.06
2018-05-12T08:24:19.060Z,932.07
2018-05-12T08:25:19.053Z,932.08
2018-05-12T08:26:19.047Z,932.07
2018-05-12T08:27:19.037Z,932.14
2018-05-12T08:28:19.030Z,932.13
2018-05-12T08:29:19.021Z,932.15
2018-05-12T08:30:19.015Z,932.18
2018-05-12T08:31:19.006Z,932.24
2018-05-12T08:32:19.003Z,932.27
2018-05-12T08:33:18.991Z,932.29
2018-05-12T08:34:18.982Z,932.30
2018-05-12T08:35:18.976Z,932.29
2018-05-12T08:36:18.968Z,932.31
2018-05-12T08:37:18.959Z,932.33
2018-05-12T08:38:18.950Z,932.31
2018-05-12T08:39:18.943Z,932.33
2018-05-12T08:40:19.007Z,932.28
2018-05-12T08:41:19.033Z,932.27
2018-05-12T08:42:18.921Z,932.20
2018-05-12T08:43:18.915Z,932.22
2018-05-12T08:44:18.906Z,932.17
2018-05-12T08:45:18.899Z,932.19
2018-05-12T08:46:18.889Z,932.22
2018-05-12T08:47:18.985Z,932.24
2018-05-12T08:48:18.995Z,932.25
2018-05-12T08:49:18.867Z,932.28
2018-05-12T08:50:18.857Z,932.29
2018-05-12T08:51:18.850Z,932.27
2018-05-12T08:52:18.844Z,932.28
2018-05-12T08:53:18.935Z,932.31
2018-05-12T08:54:18.825Z,932.34
2018-05-12T08:55:18.827Z,932.28
2018-05-12T08:56:18.810Z,932.32
2018-05-12T08:57:18.804Z,932.32
2018-05-12T08:58:18.795Z,932.35
2018-05-12T08:59:19.011Z,932.36
2018-05-12T09:00:18.780Z,932.34
2018-05-12T09:01:18.771Z,932.34
2018-05-12T09:02:18.763Z,932.38
2018-05-12T09:03:18.756Z,932.43
2018-05-12T09:04:18.748Z,932.46
2018-05-12T09:05:18.898Z,932.44
2018-05-12T09:06:18.731Z,932.46
2018-05-12T09:07:18.780Z,932.46
2018-05-12T09:08:18.717Z,932.45
2018-05-12T09:09:18.708Z,932.50
2018-05-12T09:10:18.700Z,932.50
2018-05-12T09:11:18.793Z,932.50
2018-05-12T09:12:18.684Z,932.50
2018-05-12T09:13:18.678Z,932.49
2018-05-12T09:14:18.668Z,932.53
2018-05-12T09:15:18.661Z,932.51
2018-05-12T09:16:18.654Z,932.50
2018-05-12T09:17:18.749Z,932.55
2018-05-12T09:18:18.638Z,932.57
2018-05-12T09:19:18.667Z,932.59
2018-05-12T09:20:18.623Z,932.59
2018-05-12T09:21:18.614Z,932.63
2018-05-12T09:22:18.608Z,932.68
2018-05-12T09:23:18.604Z,932.66
2018-05-12T09:24:18.591Z,932.67
2018-05-12T09:25:18.584Z,932.65
2018-05-12T09:26:18.574Z,932.68
2018-05-12T09:27:18.567Z,932.72
2018-05-12T09:28:18.560Z,932.69
2018-05-12T09:29:18.652Z,932.70
2018-05-12T09:30:18.543Z,932.76
2018-05-12T09:31:18.537Z,932.71
2018-05-12T09:32:18.531Z,932.70
2018-05-12T09:33:18.521Z,932.78
2018-05-12T09:34:18.515Z,932.82
2018-05-12T09:35:18.508Z,932.83
2018-05-12T09:36:18.497Z,932.83
2018-05-12T09:37:18.496Z,932.87
2018-05-12T09:38:18.483Z,932.87
2018-05-12T09:39:18.478Z,932.87
2018-05-12T09:40:18.466Z,932.85
2018-05-12T09:41:18.464Z,932.86
2018-05-12T09:42:18.478Z,932.92
2018-05-12T09:43:18.444Z,932.92
2018-05-12T09:44:18.442Z,932.99
2018-05-12T09:45:18.429Z,933.01
2018-05-12T09:46:18.417Z,933.03
2018-05-12T09:47:18.513Z,933.07
2018-05-12T09:48:18.404Z,933.05
2018-05-12T09:49:18.395Z,933.05
2018-05-12T09:50:18.393Z,933.08
2018-05-12T09:51:18.391Z,933.06
2018-05-12T09:52:18.393Z,933.09
2018-05-12T09:53:18.465Z,933.05
2018-05-12T09:54:18.363Z,933.10
2018-05-12T09:55:18.350Z,933.14
2018-05-12T09:56:18.343Z,933.16
2018-05-12T09:57:18.335Z,933.14
2018-05-12T09:58:18.330Z,933.13
2018-05-12T09:59:18.318Z,933.15
2018-05-12T10:00:18.312Z,933.12
2018-05-12T10:01:18.305Z,933.18
2018-05-12T10:02:18.297Z,933.13
2018-05-12T10:03:18.289Z,933.14
2018-05-12T10:04:18.282Z,933.17
2018-05-12T10:05:18.425Z,933.16
2018-05-12T10:06:18.265Z,933.18
2018-05-12T10:07:18.258Z,933.23
2018-05-12T10:08:18.251Z,933.23
2018-05-12T10:09:18.244Z,933.23
2018-05-12T10:10:18.236Z,933.25
2018-05-12T10:11:18.233Z,933.28
2018-05-12T10:12:18.219Z,933.27
2018-05-12T10:13:18.214Z,933.32
2018-05-12T10:14:18.205Z,933.33
2018-05-12T10:15:18.201Z,933.37
2018-05-12T10:16:18.191Z,933.35
2018-05-12T10:17:18.292Z,933.39
2018-05-12T10:18:18.177Z,933.33
2018-05-12T10:19:18.257Z,933.32
2018-05-12T10:20:18.161Z,933.34
2018-05-12T10:21:18.154Z,933.33
2018-05-12T10:22:18.143Z,933.35
2018-05-12T10:23:18.238Z,933.35
2018-05-12T10:24:18.136Z,933.37
2018-05-12T10:25:18.124Z,933.37
2018-05-12T10:26:18.131Z,933.38
2018-05-12T10:27:18.109Z,933.40
2018-05-12T10:28:18.100Z,933.40
2018-05-12T10:29:18.194Z,933.43
2018-05-12T10:30:18.087Z,933.42
2018-05-12T10:31:18.078Z,933.44
2018-05-12T10:32:18.074Z,933.43
2018-05-12T10:33:18.063Z,933.47
2018-05-12T10:34:18.057Z,933.49
2018-05-12T10:35:18.149Z,933.47
2018-05-12T10:36:18.047Z,933.49
2018-05-12T10:37:18.043Z,933.50
2018-05-12T10:38:18.027Z,933.51
2018-05-12T10:39:18.020Z,933.49
2018-05-12T10:40:18.024Z,933.48
2018-05-12T10:41:18.105Z,933.49
2018-05-12T10:42:17.998Z,933.51
2018-05-12T10:43:17.992Z,933.51
2018-05-12T10:44:17.984Z,933.50
2018-05-12T10:45:18.027Z,933.49
2018-05-12T10:46:17.969Z,933.50
2018-05-12T10:47:18.061Z,933.49
2018-05-12T10:48:17.954Z,933.58
2018-05-12T10:49:17.948Z,933.59
2018-05-12T10:50:17.938Z,933.58
2018-05-12T10:51:17.931Z,933.56
2018-05-12T10:52:17.925Z,933.57
2018-05-12T10:53:17.920Z,933.62
2018-05-12T10:54:17.910Z,933.63
2018-05-12T10:55:17.904Z,933.60
2018-05-12T10:56:17.897Z,933.58
2018-05-12T10:57:17.889Z,933.59
2018-05-12T10:58:17.882Z,933.61
2018-05-12T10:59:17.974Z,933.61
2018-05-12T11:00:17.869Z,933.63
2018-05-12T11:01:17.861Z,933.64
2018-05-12T11:02:17.853Z,933.62
2018-05-12T11:03:17.848Z,933.65
2018-05-12T11:04:17.840Z,933.68
2018-05-12T11:05:17.833Z,933.72
2018-05-12T11:06:17.824Z,933.70
2018-05-12T11:07:17.818Z,933.74
2018-05-12T11:08:17.811Z,933.75
2018-05-12T11:09:17.803Z,933.74
2018-05-12T11:10:17.796Z,933.78
2018-05-12T11:11:17.890Z,933.76
2018-05-12T11:12:17.782Z,933.80
2018-05-12T11:13:17.775Z,933.82
2018-05-12T11:14:17.769Z,933.81
2018-05-12T11:15:17.761Z,933.84
2018-05-12T11:16:17.754Z,933.87
2018-05-12T11:17:17.748Z,933.88
2018-05-12T11:18:17.741Z,933.91
2018-05-12T11:19:17.734Z,933.94
2018-05-12T11:20:17.745Z,933.94
2018-05-12T11:21:17.720Z,933.93
2018-05-12T11:22:17.711Z,933.89
2018-05-12T11:23:17.711Z,933.93
2018-05-12T11:24:17.698Z,933.89
2018-05-12T11:25:17.693Z,933.89
2018-05-12T11:26:17.684Z,933.90
2018-05-12T11:27:17.678Z,933.93
2018-05-12T11:28:17.671Z,933.91
2018-05-12T11:29:17.768Z,933.94
2018-05-12T11:30:17.657Z,933.98
2018-05-12T11:31:17.650Z,933.98
2018-05-12T11:32:17.731Z,934.02
2018-05-12T11:33:17.637Z,934.03
2018-05-12T11:34:17.707Z,934.07
2018-05-12T11:35:17.773Z,934.09
2018-05-12T11:36:17.620Z,934.12
2018-05-12T11:37:17.610Z,934.15
2018-05-12T11:38:17.602Z,934.17
2018-05-12T11:39:17.596Z,934.19
2018-05-12T11:40:17.589Z,934.21
2018-05-12T11:41:17.781Z,934.23
2018-05-12T11:42:17.573Z,934.26
2018-05-12T11:43:17.568Z,934.25
2018-05-12T11:44:17.561Z,934.22
2018-05-12T11:45:17.555Z,934.25
2018-05-12T11:46:17.548Z,934.22
2018-05-12T11:47:17.541Z,934.31
2018-05-12T11:48:17.534Z,934.31
2018-05-12T11:49:17.528Z,934.32
2018-05-12T11:50:17.521Z,934.35
2018-05-12T11:51:17.604Z,934.38
2018-05-12T11:52:17.508Z,934.41
2018-05-12T11:53:17.501Z,934.41
2018-05-12T11:54:17.493Z,934.43
2018-05-12T11:55:17.486Z,934.46
2018-05-12T11:56:17.483Z,934.48
2018-05-12T11:57:17.473Z,934.49
2018-05-12T11:58:17.505Z,934.47
2018-05-12T11:59:17.463Z,934.47
2018-05-12T12:00:17.454Z,934.48
2018-05-12T12:01:17.448Z,934.45
2018-05-12T12:02:17.439Z,934.41
2018-05-12T12:03:17.433Z,934.45
2018-05-12T12:04:17.427Z,934.38
2018-05-12T12:05:17.421Z,934.37
2018-05-12T12:06:17.415Z,934.35
2018-05-12T12:07:17.409Z,934.36
2018-05-12T12:08:17.404Z,934.34
2018-05-12T12:09:17.398Z,934.33
2018-05-12T12:10:17.391Z,934.39
2018-05-12T12:11:17.385Z,934.38
2018-05-12T12:12:17.381Z,934.37
2018-05-12T12:13:17.375Z,934.41
2018-05-12T12:14:17.368Z,934.42
2018-05-12T12:15:17.363Z,934.43
2018-05-12T12:16:17.358Z,934.46
2018-05-12T12:17:17.453Z,934.46
2018-05-12T12:18:17.345Z,934.44
2018-05-12T12:19:17.344Z,934.44
2018-05-12T12:20:17.337Z,934.42
2018-05-12T12:21:17.331Z,934.47
2018-05-12T12:22:17.325Z,934.46
2018-05-12T12:23:17.321Z,934.48
2018-05-12T12:24:17.314Z,934.43
2018-05-12T12:25:17.309Z,934.44
2018-05-12T12:26:17.304Z,934.44
2018-05-12T12:27:17.300Z,934.45
2018-05-12T12:28:17.295Z,934.45